createdAt,value
2022-11-30T00:01:17.616Z,64.80
2022-11-30T00:03:45.205Z,66.10
2022-11-30T00:06:15.086Z,66.40
2022-11-30T00:08:42.543Z,65.80
2022-11-30T00:11:11.787Z,65.40
2022-11-30T00:13:38.823Z,66.30
2022-11-30T00:16:06.188Z,66.90
2022-11-30T00:18:33.352Z,67.10
2022-11-30T00:21:06.111Z,66.80
2022-11-30T00:23:38.622Z,67.60
2022-11-30T00:26:08.826Z,67.70
2022-11-30T00:28:36.686Z,69.00
2022-11-30T00:31:06.935Z,68.80
2022-11-30T00:33:35.713Z,68.90
2022-11-30T00:36:05.846Z,68.10
2022-11-30T00:38:33.710Z,67.40
2022-11-30T00:41:01.731Z,67.20
2022-11-30T00:43:29.129Z,67.10
2022-11-30T00:45:56.239Z,67.30
2022-11-30T00:48:23.275Z,67.50
2022-11-30T00:50:51.023Z,67.70
2022-11-30T00:53:19.287Z,67.70
2022-11-30T00:55:46.713Z,68.30
2022-11-30T00:58:14.039Z,69.40
2022-11-30T01:00:41.439Z,69.30
2022-11-30T01:03:08.558Z,69.10
2022-11-30T01:05:35.839Z,69.60
2022-11-30T01:08:04.015Z,70.50
2022-11-30T01:10:31.113Z,71.10
2022-11-30T01:12:58.115Z,71.10
2022-11-30T01:15:25.019Z,70.40
2022-11-30T01:17:52.065Z,69.80
2022-11-30T01:20:19.090Z,69.70
2022-11-30T01:22:46.057Z,70.30
2022-11-30T01:25:12.968Z,70.60
2022-11-30T01:27:39.893Z,70.20
2022-11-30T01:30:08.293Z,68.90
2022-11-30T01:32:35.295Z,69.00
2022-11-30T01:35:02.274Z,69.70
2022-11-30T01:37:30.192Z,70.00
2022-11-30T01:39:57.197Z,70.20
2022-11-30T01:42:24.558Z,71.10
2022-11-30T01:44:54.310Z,71.10
2022-11-30T01:47:43.706Z,70.50
2022-11-30T01:50:23.553Z,69.80
2022-11-30T01:52:53.957Z,71.00
2022-11-30T01:55:24.158Z,70.30
2022-11-30T01:58:02.861Z,71.10
2022-11-30T02:00:29.989Z,71.10
2022-11-30T02:03:15.823Z,69.90
2022-11-30T02:05:43.209Z,69.30
2022-11-30T02:08:11.174Z,70.70
2022-11-30T02:10:41.888Z,71.10
2022-11-30T02:13:48.182Z,71.20
2022-11-30T02:16:38.189Z,72.40
2022-11-30T02:19:14.595Z,71.00
2022-11-30T02:22:11.550Z,71.10
2022-11-30T02:24:57.221Z,71.10
2022-11-30T02:27:36.196Z,71.20
2022-11-30T02:30:09.495Z,71.20
2022-11-30T02:33:08.938Z,71.00
2022-11-30T02:35:40.603Z,71.10
2022-11-30T02:38:08.388Z,71.20
2022-11-30T02:40:35.474Z,71.10
2022-11-30T02:43:05.671Z,71.20
2022-11-30T02:45:58.568Z,70.30
2022-11-30T02:48:49.492Z,69.70
2022-11-30T02:51:20.604Z,71.00
2022-11-30T02:53:48.794Z,71.10
2022-11-30T02:56:17.434Z,69.90
2022-11-30T02:58:44.473Z,69.40
2022-11-30T03:01:11.689Z,69.20
2022-11-30T03:03:38.768Z,69.60
2022-11-30T03:06:05.960Z,69.90
2022-11-30T03:08:32.822Z,69.60
2022-11-30T03:11:03.902Z,70.20
2022-11-30T03:13:34.512Z,71.00
2022-11-30T03:16:12.543Z,72.40
2022-11-30T03:18:40.372Z,71.10
2022-11-30T03:21:12.374Z,71.00
2022-11-30T03:23:40.971Z,71.10
2022-11-30T03:26:09.282Z,71.00
2022-11-30T03:28:37.283Z,71.10
2022-11-30T03:31:04.986Z,71.20
2022-11-30T03:33:31.914Z,71.10
2022-11-30T03:36:07.801Z,71.00
2022-11-30T03:38:35.413Z,71.10
2022-11-30T03:41:19.362Z,71.10
2022-11-30T03:43:47.256Z,71.10
2022-11-30T03:46:14.680Z,71.00
2022-11-30T03:48:41.685Z,71.00
2022-11-30T03:51:09.922Z,71.00
2022-11-30T03:53:37.745Z,71.10
2022-11-30T03:56:07.908Z,71.10
2022-11-30T03:58:35.789Z,71.00
2022-11-30T04:01:23.771Z,71.00
2022-11-30T04:03:51.995Z,71.00
2022-11-30T04:06:20.401Z,71.00
2022-11-30T04:08:47.804Z,71.00
2022-11-30T04:11:15.257Z,71.00
2022-11-30T04:13:42.766Z,70.90
2022-11-30T04:16:10.430Z,70.90
2022-11-30T04:18:39.341Z,71.10
2022-11-30T04:21:07.724Z,71.00
2022-11-30T04:23:37.230Z,71.00
2022-11-30T04:26:06.622Z,72.30
2022-11-30T04:28:34.284Z,71.00
2022-11-30T04:31:02.886Z,71.00
2022-11-30T04:33:30.560Z,71.00
2022-11-30T04:36:00.178Z,71.00
2022-11-30T04:38:27.922Z,71.00
2022-11-30T04:40:54.892Z,71.00
2022-11-30T04:43:22.184Z,70.40
2022-11-30T04:45:49.482Z,70.00
2022-11-30T04:48:18.380Z,70.00
2022-11-30T04:50:45.566Z,69.50
2022-11-30T04:53:12.656Z,70.50
2022-11-30T04:55:39.810Z,71.00
2022-11-30T04:58:07.132Z,70.40
2022-11-30T05:00:35.188Z,69.50
2022-11-30T05:03:02.216Z,68.40
2022-11-30T05:05:29.367Z,67.60
2022-11-30T05:07:58.530Z,67.00
2022-11-30T05:10:27.617Z,66.30
2022-11-30T05:12:56.377Z,65.10
2022-11-30T05:15:23.440Z,64.80
2022-11-30T05:17:50.376Z,64.80
2022-11-30T05:20:17.463Z,65.50
2022-11-30T05:22:44.378Z,65.40
2022-11-30T05:25:11.604Z,65.00
2022-11-30T05:27:38.772Z,64.00
2022-11-30T05:30:06.284Z,64.50
2022-11-30T05:32:33.457Z,64.70
2022-11-30T05:35:00.492Z,64.40
2022-11-30T05:37:27.587Z,63.80
2022-11-30T05:39:54.488Z,63.00
2022-11-30T05:42:21.893Z,62.10
2022-11-30T05:44:49.170Z,61.20
2022-11-30T05:47:16.557Z,60.80
2022-11-30T05:49:43.786Z,61.00
2022-11-30T05:52:10.915Z,61.30
2022-11-30T05:54:38.007Z,60.70
2022-11-30T05:57:05.557Z,61.10
2022-11-30T05:59:32.907Z,61.10
2022-11-30T06:02:00.065Z,61.40
2022-11-30T06:04:27.190Z,62.10
2022-11-30T06:06:55.855Z,62.20
2022-11-30T06:09:23.453Z,62.10
2022-11-30T06:11:51.149Z,62.50
2022-11-30T06:14:18.288Z,63.20
2022-11-30T06:16:45.321Z,63.60
2022-11-30T06:19:12.472Z,63.60
2022-11-30T06:21:39.370Z,63.90
2022-11-30T06:24:06.862Z,64.40
2022-11-30T06:26:33.880Z,64.90
2022-11-30T06:29:01.015Z,65.90
2022-11-30T06:31:28.134Z,66.40
2022-11-30T06:33:59.038Z,66.60
2022-11-30T06:36:29.992Z,66.90
2022-11-30T06:39:01.216Z,66.70
2022-11-30T06:41:28.276Z,67.10
2022-11-30T06:43:55.365Z,67.00
2022-11-30T06:46:22.661Z,67.20
2022-11-30T06:48:51.185Z,67.20
2022-11-30T06:51:19.151Z,67.50
2022-11-30T06:53:46.595Z,67.70
2022-11-30T06:56:13.554Z,67.50
2022-11-30T06:58:41.068Z,68.30
2022-11-30T07:01:10.269Z,68.20
2022-11-30T07:03:37.914Z,68.10
2022-11-30T07:06:23.029Z,68.00
2022-11-30T07:08:50.064Z,67.40
2022-11-30T07:11:16.995Z,67.50
2022-11-30T07:13:44.128Z,67.60
2022-11-30T07:16:12.146Z,69.40
2022-11-30T07:18:39.242Z,69.10
2022-11-30T07:21:06.571Z,69.40
2022-11-30T07:23:56.367Z,69.50
2022-11-30T07:26:25.295Z,70.10
2022-11-30T07:28:58.746Z,70.40
2022-11-30T07:31:31.205Z,70.60
2022-11-30T07:33:59.571Z,70.60
2022-11-30T07:36:27.499Z,70.60
2022-11-30T07:38:54.631Z,70.50
2022-11-30T07:41:22.054Z,70.50
2022-11-30T07:43:49.333Z,70.60
2022-11-30T07:46:17.148Z,70.60
2022-11-30T07:48:45.247Z,70.70
2022-11-30T07:51:16.533Z,70.20
2022-11-30T07:53:43.957Z,69.60
2022-11-30T07:56:13.513Z,68.40
2022-11-30T07:58:41.479Z,67.70
2022-11-30T08:01:11.213Z,67.20
2022-11-30T08:03:38.373Z,67.20
2022-11-30T08:06:19.810Z,67.00
2022-11-30T08:08:48.315Z,67.40
2022-11-30T08:11:17.868Z,68.00
2022-11-30T08:13:45.015Z,68.10
2022-11-30T08:16:17.816Z,67.50
2022-11-30T08:18:45.191Z,68.40
2022-11-30T08:21:14.680Z,68.80
2022-11-30T08:23:44.047Z,69.40
2022-11-30T08:26:12.457Z,69.10
2022-11-30T08:28:40.259Z,69.40
2022-11-30T08:31:14.310Z,69.40
2022-11-30T08:33:41.651Z,69.20
2022-11-30T08:36:17.233Z,69.10
2022-11-30T08:38:45.686Z,70.80
2022-11-30T08:41:15.873Z,70.70
2022-11-30T08:43:43.408Z,70.90
2022-11-30T08:46:49.200Z,70.80
2022-11-30T08:49:20.340Z,69.60
2022-11-30T08:57:33.335Z,68.90
2022-11-30T09:00:00.233Z,69.00
2022-11-30T09:02:27.887Z,69.20
2022-11-30T09:04:54.959Z,69.10
2022-11-30T09:07:21.978Z,67.60
2022-11-30T09:09:49.009Z,67.20
2022-11-30T09:12:16.077Z,67.00
2022-11-30T09:14:43.160Z,66.90
2022-11-30T09:17:10.253Z,66.50
2022-11-30T09:19:37.186Z,66.80
2022-11-30T09:22:04.190Z,66.20
2022-11-30T09:24:31.343Z,65.00
2022-11-30T09:26:58.252Z,63.80
2022-11-30T09:29:27.804Z,62.70
2022-11-30T09:31:54.893Z,59.90
2022-11-30T09:34:21.853Z,55.30
2022-11-30T09:36:48.775Z,52.60
2022-11-30T09:39:15.903Z,51.80
2022-11-30T09:42:07.256Z,50.70
2022-11-30T09:44:52.524Z,49.10
2022-11-30T09:47:38.222Z,46.80
2022-11-30T09:50:16.464Z,45.20
2022-11-30T09:52:57.373Z,44.40
2022-11-30T09:55:35.834Z,43.80
2022-11-30T09:58:05.553Z,45.00
2022-11-30T10:00:34.845Z,44.50
2022-11-30T10:03:06.313Z,43.40
2022-11-30T10:05:52.369Z,43.50
2022-11-30T10:08:39.976Z,43.50
2022-11-30T10:11:25.526Z,43.50
2022-11-30T10:14:16.275Z,43.50
2022-11-30T10:16:49.535Z,43.60
2022-11-30T10:19:58.845Z,43.70
2022-11-30T10:22:48.820Z,40.90
2022-11-30T10:25:29.067Z,38.00
2022-11-30T10:28:45.750Z,41.10
2022-11-30T10:31:19.488Z,40.20
2022-11-30T10:33:49.695Z,43.50
2022-11-30T10:36:26.764Z,43.70
2022-11-30T10:39:00.228Z,43.70
2022-11-30T10:41:35.423Z,43.70
2022-11-30T10:44:18.507Z,43.70
2022-11-30T10:47:18.171Z,39.80
2022-11-30T10:49:50.184Z,38.80
2022-11-30T10:52:34.023Z,42.40
2022-11-30T10:55:04.816Z,42.40
2022-11-30T10:57:33.071Z,42.80
2022-11-30T11:00:03.617Z,42.50
2022-11-30T11:02:45.729Z,43.70
2022-11-30T11:05:17.862Z,40.80
2022-11-30T11:08:25.150Z,39.00
2022-11-30T11:10:52.093Z,38.50
2022-11-30T11:13:38.091Z,40.00
2022-11-30T11:16:07.615Z,40.20
2022-11-30T11:18:36.172Z,42.00
2022-11-30T11:21:07.913Z,41.00
2022-11-30T11:23:43.483Z,39.90
2022-11-30T11:26:28.052Z,34.50
2022-11-30T11:28:59.579Z,36.80
2022-11-30T11:31:35.719Z,35.50
2022-11-30T11:34:03.792Z,37.50
2022-11-30T11:36:37.129Z,38.90
2022-11-30T11:39:27.551Z,37.20
2022-11-30T11:41:54.673Z,32.20
2022-11-30T11:44:23.467Z,36.70
2022-11-30T11:47:23.196Z,34.20
2022-11-30T11:49:50.876Z,31.90
2022-11-30T11:52:18.471Z,35.50
2022-11-30T11:54:56.685Z,35.40
2022-11-30T11:57:36.190Z,36.60
2022-11-30T12:00:16.468Z,37.60
2022-11-30T12:03:08.558Z,38.30
2022-11-30T12:05:43.124Z,36.60
2022-11-30T12:08:31.225Z,35.40
2022-11-30T12:11:03.110Z,36.10
2022-11-30T12:13:34.034Z,37.00
2022-11-30T12:16:22.543Z,38.40
2022-11-30T12:19:00.452Z,37.90
2022-11-30T12:21:41.648Z,40.00
2022-11-30T12:24:19.753Z,39.80
2022-11-30T12:27:03.359Z,40.20
2022-11-30T12:29:55.833Z,40.30
2022-11-30T12:32:47.551Z,41.90
2022-11-30T12:35:52.954Z,42.30
2022-11-30T12:38:22.745Z,42.60
2022-11-30T12:41:14.967Z,41.20
2022-11-30T12:43:48.278Z,41.00
2022-11-30T12:46:41.126Z,43.10
2022-11-30T12:49:47.411Z,41.70
2022-11-30T12:52:17.650Z,43.20
2022-11-30T12:54:48.192Z,43.10
2022-11-30T12:57:23.189Z,43.30
2022-11-30T12:59:56.466Z,43.30
2022-11-30T13:02:48.162Z,43.30
2022-11-30T13:05:21.310Z,42.40
2022-11-30T13:08:11.515Z,43.50
2022-11-30T13:10:45.695Z,40.00
2022-11-30T13:13:17.489Z,38.80
2022-11-30T13:15:46.810Z,34.60
2022-11-30T13:18:21.178Z,36.60
2022-11-30T13:20:55.001Z,35.20
2022-11-30T13:23:36.011Z,36.60
2022-11-30T13:26:27.586Z,36.70
2022-11-30T13:29:13.566Z,37.70
2022-11-30T13:31:51.996Z,37.00
2022-11-30T13:34:29.678Z,37.00
2022-11-30T13:37:23.123Z,38.70
2022-11-30T13:39:57.711Z,38.70
2022-11-30T13:42:34.355Z,38.50
2022-11-30T13:45:31.100Z,37.00
2022-11-30T13:48:18.383Z,35.80
2022-11-30T13:50:48.576Z,37.50
2022-11-30T13:53:23.592Z,38.20
2022-11-30T13:56:01.896Z,38.00
2022-11-30T13:58:29.985Z,36.70
2022-11-30T14:01:15.428Z,35.80
2022-11-30T14:03:42.522Z,34.40
2022-11-30T14:06:43.950Z,35.10
2022-11-30T14:09:43.222Z,33.50
2022-11-30T14:12:37.696Z,34.10
2022-11-30T14:15:40.786Z,34.10
2022-11-30T14:18:10.883Z,33.60
2022-11-30T14:21:04.688Z,32.50
2022-11-30T14:23:55.597Z,30.60
2022-11-30T14:26:44.450Z,30.10
2022-11-30T14:29:17.409Z,29.60
2022-11-30T14:32:01.002Z,30.00
2022-11-30T14:34:37.200Z,30.20
2022-11-30T14:37:14.792Z,30.70
2022-11-30T14:39:46.620Z,30.70
2022-11-30T14:42:31.371Z,31.10
2022-11-30T14:44:58.367Z,28.60
2022-11-30T14:47:33.845Z,27.80
2022-11-30T14:50:04.354Z,28.00
2022-11-30T14:52:38.156Z,28.40
2022-11-30T14:55:17.784Z,29.10
2022-11-30T14:58:25.686Z,29.40
2022-11-30T15:00:53.088Z,29.40
2022-11-30T15:03:35.996Z,28.40
2022-11-30T15:06:07.727Z,30.00
2022-11-30T15:08:42.329Z,30.70
2022-11-30T15:11:14.001Z,30.60
2022-11-30T15:13:47.922Z,30.00
2022-11-30T15:16:22.428Z,29.30
2022-11-30T15:18:50.410Z,29.20
2022-11-30T15:21:23.945Z,29.60
2022-11-30T15:23:52.765Z,29.70
2022-11-30T15:26:33.161Z,29.30
2022-11-30T15:29:08.037Z,28.80
2022-11-30T15:31:38.603Z,28.50
2022-11-30T15:34:07.322Z,28.30
2022-11-30T15:36:38.404Z,28.40
2022-11-30T15:39:08.088Z,28.50
2022-11-30T15:41:36.359Z,27.40
2022-11-30T15:44:03.546Z,27.00
2022-11-30T15:46:46.532Z,27.50
2022-11-30T15:49:31.862Z,28.90
2022-11-30T15:52:05.110Z,28.20
2022-11-30T15:54:44.246Z,29.30
2022-11-30T15:57:12.218Z,29.20
2022-11-30T15:59:39.567Z,29.40
2022-11-30T16:02:22.624Z,29.80
2022-11-30T16:05:14.457Z,29.90
2022-11-30T16:07:57.484Z,30.00
2022-11-30T16:10:29.018Z,30.00
2022-11-30T16:12:56.630Z,30.10
2022-11-30T16:15:27.078Z,30.00
2022-11-30T16:17:59.191Z,30.90
2022-11-30T16:20:26.340Z,30.80
2022-11-30T16:22:53.266Z,30.80
2022-11-30T16:25:22.923Z,31.20
2022-11-30T16:27:52.336Z,31.40
2022-11-30T16:30:23.875Z,32.10
2022-11-30T16:32:51.117Z,32.50
2022-11-30T16:35:20.975Z,33.10
2022-11-30T16:37:48.199Z,33.90
2022-11-30T16:40:15.541Z,34.50
2022-11-30T16:42:42.518Z,34.40
2022-11-30T16:45:16.567Z,34.30
2022-11-30T16:47:44.112Z,33.80
2022-11-30T16:50:12.812Z,33.90
2022-11-30T16:52:41.142Z,34.00
2022-11-30T16:55:20.257Z,34.20
2022-11-30T16:57:48.287Z,34.10
2022-11-30T17:00:18.796Z,34.90
2022-11-30T17:02:53.378Z,35.40
2022-11-30T17:05:20.503Z,35.60
2022-11-30T17:07:47.683Z,35.90
2022-11-30T17:10:14.903Z,36.00
2022-11-30T17:12:42.306Z,36.00
2022-11-30T17:15:19.300Z,36.10
2022-11-30T17:17:46.624Z,36.40
2022-11-30T17:20:15.837Z,36.70
2022-11-30T17:22:44.032Z,36.30
2022-11-30T17:25:20.316Z,36.40
2022-11-30T17:27:48.398Z,36.40
2022-11-30T17:30:17.694Z,36.60
2022-11-30T17:32:45.084Z,36.70
2022-11-30T17:35:12.383Z,37.20
2022-11-30T17:37:39.390Z,37.30
2022-11-30T17:40:07.364Z,37.30
2022-11-30T17:42:34.697Z,37.20
2022-11-30T17:45:01.536Z,37.70
2022-11-30T17:47:28.669Z,38.10
2022-11-30T17:49:56.697Z,38.00
2022-11-30T17:52:23.848Z,37.70
2022-11-30T17:54:51.061Z,36.90
2022-11-30T17:57:18.031Z,36.70
2022-11-30T17:59:45.200Z,36.10
2022-11-30T18:02:12.766Z,36.30
2022-11-30T18:04:40.925Z,36.10
2022-11-30T18:07:08.089Z,36.00
2022-11-30T18:09:40.846Z,35.90
2022-11-30T18:12:10.473Z,35.80
2022-11-30T18:14:37.382Z,36.10
2022-11-30T18:17:04.751Z,36.40
2022-11-30T18:19:31.708Z,36.60
2022-11-30T18:21:58.739Z,36.30
2022-11-30T18:24:26.039Z,36.30
2022-11-30T18:26:53.516Z,36.10
2022-11-30T18:29:20.497Z,36.00
2022-11-30T18:31:48.616Z,36.00
2022-11-30T18:34:16.199Z,36.00
2022-11-30T18:36:43.258Z,36.10
2022-11-30T18:39:10.253Z,36.00
2022-11-30T18:41:37.354Z,36.30
2022-11-30T18:44:05.016Z,36.60
2022-11-30T18:46:32.095Z,36.70
2022-11-30T18:48:59.657Z,36.70
2022-11-30T18:51:30.439Z,36.70
2022-11-30T18:54:03.398Z,37.20
2022-11-30T18:56:34.687Z,37.40
2022-11-30T18:59:13.634Z,37.70
2022-11-30T19:01:43.343Z,37.80
2022-11-30T19:04:11.767Z,36.60
2022-11-30T19:06:41.317Z,38.20
2022-11-30T19:09:11.898Z,38.50
2022-11-30T19:11:40.318Z,39.00
2022-11-30T19:14:08.237Z,39.30
2022-11-30T19:16:35.911Z,39.60
2022-11-30T19:19:05.796Z,41.50
2022-11-30T19:21:33.589Z,41.10
2022-11-30T19:24:00.882Z,41.60
2022-11-30T19:26:28.515Z,42.00
2022-11-30T19:28:56.810Z,41.60
2022-11-30T19:31:25.291Z,41.90
2022-11-30T19:33:54.409Z,41.20
2022-11-30T19:36:24.170Z,40.90
2022-11-30T19:38:51.593Z,40.70
2022-11-30T19:41:20.076Z,40.50
2022-11-30T19:43:54.801Z,40.30
2022-11-30T19:46:23.342Z,40.30
2022-11-30T19:48:57.098Z,40.30
2022-11-30T19:51:24.316Z,40.20
2022-11-30T19:53:55.628Z,39.70
2022-11-30T19:56:23.497Z,39.70
2022-11-30T19:58:50.852Z,40.20
2022-11-30T20:01:22.990Z,40.10
2022-11-30T20:03:58.284Z,40.40
2022-11-30T20:06:28.803Z,41.70
2022-11-30T20:08:56.027Z,42.10
2022-11-30T20:11:23.543Z,42.10
2022-11-30T20:13:51.603Z,42.20
2022-11-30T20:16:20.916Z,42.20
2022-11-30T20:18:54.223Z,42.20
2022-11-30T20:21:27.042Z,42.20
2022-11-30T20:23:57.917Z,42.20
2022-11-30T20:26:37.740Z,42.10
2022-11-30T20:29:07.002Z,42.10
2022-11-30T20:31:36.054Z,42.10
2022-11-30T20:34:03.721Z,42.20
2022-11-30T20:36:31.301Z,42.10
2022-11-30T20:38:58.971Z,43.50
2022-11-30T20:41:26.467Z,43.90
2022-11-30T20:43:53.619Z,44.00
2022-11-30T20:46:24.661Z,44.60
2022-11-30T20:48:53.245Z,44.90
2022-11-30T20:51:30.761Z,44.90
2022-11-30T20:54:05.706Z,45.20
2022-11-30T20:56:35.412Z,45.70
2022-11-30T20:59:05.116Z,46.30
2022-11-30T21:01:32.760Z,46.20
2022-11-30T21:04:00.992Z,46.30
2022-11-30T21:06:29.703Z,45.90
2022-11-30T21:08:57.367Z,45.60
2022-11-30T21:11:24.745Z,45.60
2022-11-30T21:13:52.530Z,45.00
2022-11-30T21:16:27.352Z,44.50
2022-11-30T21:18:56.493Z,44.10
2022-11-30T21:21:25.488Z,43.80
2022-11-30T21:23:52.858Z,43.30
2022-11-30T21:26:25.115Z,43.30
2022-11-30T21:28:54.241Z,43.90
2022-11-30T21:31:22.084Z,44.40
2022-11-30T21:33:53.172Z,45.00
2022-11-30T21:36:21.707Z,45.40
2022-11-30T21:38:53.562Z,45.10
2022-11-30T21:41:20.553Z,44.90
2022-11-30T21:43:47.572Z,44.40
2022-11-30T21:46:17.211Z,43.80
2022-11-30T21:48:46.788Z,43.50
2022-11-30T21:51:19.074Z,44.00
2022-11-30T21:53:48.727Z,44.90
2022-11-30T21:56:18.621Z,44.90
2022-11-30T21:58:47.300Z,45.20
2022-11-30T22:01:19.953Z,45.30
2022-11-30T22:03:47.527Z,46.20
2022-11-30T22:06:16.936Z,46.70
2022-11-30T22:08:44.509Z,46.80
2022-11-30T22:11:12.703Z,46.30
2022-11-30T22:13:40.320Z,46.20
2022-11-30T22:16:10.204Z,46.00
2022-11-30T22:18:37.846Z,46.10
2022-11-30T22:21:09.818Z,46.10
2022-11-30T22:23:39.674Z,46.30
2022-11-30T22:26:13.119Z,46.40
2022-11-30T22:28:41.974Z,48.20
2022-11-30T22:31:11.599Z,49.00
2022-11-30T22:33:41.599Z,49.20
2022-11-30T22:36:12.901Z,48.90
2022-11-30T22:38:39.965Z,49.10
2022-11-30T22:41:09.278Z,49.10
2022-11-30T22:43:36.812Z,49.90
2022-11-30T22:46:12.710Z,50.30
2022-11-30T22:48:40.617Z,50.40
2022-11-30T22:51:13.719Z,50.50
2022-11-30T22:53:41.825Z,51.10
2022-11-30T22:56:13.041Z,51.70
2022-11-30T22:58:41.051Z,52.10
2022-11-30T23:01:13.343Z,51.90
2022-11-30T23:03:41.724Z,51.40
2022-11-30T23:06:09.700Z,51.10
2022-11-30T23:08:37.197Z,51.00
2022-11-30T23:11:09.743Z,50.80
2022-11-30T23:13:38.488Z,51.30
2022-11-30T23:16:06.191Z,51.60
2022-11-30T23:18:40.938Z,51.40
2022-11-30T23:21:40.610Z,51.10
2022-11-30T23:24:12.724Z,50.20
2022-11-30T23:26:40.119Z,50.10
2022-11-30T23:29:10.198Z,50.30
2022-11-30T23:31:38.911Z,50.40
2022-11-30T23:34:08.462Z,50.90
2022-11-30T23:36:36.366Z,51.70
2022-11-30T23:39:06.519Z,52.10
2022-11-30T23:41:33.882Z,52.00
2022-11-30T23:44:01.556Z,51.90
2022-11-30T23:46:28.503Z,52.20
2022-11-30T23:48:55.953Z,52.40
2022-11-30T23:51:23.281Z,52.10
2022-11-30T23:53:50.393Z,53.00
2022-11-30T23:56:19.123Z,51.40
2022-11-30T23:58:46.663Z,51.00
